Orbital elements of SL-16 DEB
| Launched | 24 December 1992 |
| Flight ended | – |
| Launch site | Tyuratam Missile and Space Center, Kazakhstan (Also known as Baikonur Cosmodrome) |
| Owner | Commonwealth of Independent States (former USSR) |
| NORAD ID | 22292 |
| Date fetched |
Epoch osculation |
Inc. [°] |
Ecc. | RA asc node [hr] |
Arg Peri. [°] |
Mean anom [°] |
Mean motion [rev/day] |
Abs. mag |
| Date fetched |
Epoch osculation |
Inc. [°] |
Ecc. | RA asc node [hr] |
Arg Peri. [°] |
Mean anom [°] |
Mean motion [rev/day] |
Abs. mag |
| 2026 May 06 17:57 | 2026 May 05 09:48:08 | 71.0046 | 0.02102 | 17.0752 | 176.2600 | 244.1671 | 13.71044 | – |
| 2026 May 05 17:57 | 2026 May 05 09:48:08 | 71.0046 | 0.02102 | 17.0752 | 176.2600 | 244.1671 | 13.71044 | – |
| 2026 May 04 17:57 | 2026 Apr 30 14:19:55 | 71.0040 | 0.02104 | 17.7014 | 183.0550 | 244.1671 | 13.71044 | – |
| 2026 May 03 17:57 | 2026 Apr 30 14:19:55 | 71.0040 | 0.02104 | 17.7014 | 183.0550 | 244.1671 | 13.71044 | – |
| 2026 May 02 17:57 | 2026 Apr 30 14:19:55 | 71.0040 | 0.02104 | 17.7014 | 183.0550 | 244.1671 | 13.71044 | – |
| 2026 May 01 17:56 | 2026 Apr 30 14:19:55 | 71.0040 | 0.02104 | 17.7014 | 183.0550 | 244.1671 | 13.71044 | – |
| 2026 Apr 30 17:56 | 2026 Apr 30 14:19:55 | 71.0040 | 0.02104 | 17.7014 | 183.0550 | 244.1671 | 13.71044 | – |
| 2026 Apr 29 17:57 | 2026 Apr 24 12:54:26 | 71.0034 | 0.02107 | 18.4901 | 191.5976 | 244.1671 | 13.71044 | – |
| 2026 Apr 28 17:56 | 2026 Apr 24 12:54:26 | 71.0034 | 0.02107 | 18.4901 | 191.5976 | 244.1671 | 13.71044 | – |
| 2026 Apr 27 17:58 | 2026 Apr 24 12:54:26 | 71.0034 | 0.02107 | 18.4901 | 191.5976 | 244.1671 | 13.71044 | – |
| 2026 Apr 26 17:58 | 2026 Apr 24 12:54:26 | 71.0034 | 0.02107 | 18.4901 | 191.5976 | 244.1671 | 13.71044 | – |
| 2026 Apr 25 17:58 | 2026 Apr 24 12:54:26 | 71.0034 | 0.02107 | 18.4901 | 191.5976 | 244.1671 | 13.71044 | – |
| 2026 Apr 24 17:59 | 2026 Apr 24 12:54:26 | 71.0034 | 0.02107 | 18.4901 | 191.5976 | 244.1671 | 13.71044 | – |
| 2026 Apr 23 17:57 | 2026 Apr 18 22:34:54 | 71.0033 | 0.02109 | 19.2187 | 199.4876 | 244.1671 | 13.71044 | – |
| 2026 Apr 22 17:57 | 2026 Apr 18 22:34:54 | 71.0033 | 0.02109 | 19.2187 | 199.4876 | 244.1671 | 13.71044 | – |
| 2026 Apr 21 17:57 | 2026 Apr 18 22:34:54 | 71.0033 | 0.02109 | 19.2187 | 199.4876 | 244.1671 | 13.71044 | – |
| 2026 Apr 20 17:57 | 2026 Apr 18 22:34:54 | 71.0033 | 0.02109 | 19.2187 | 199.4876 | 244.1671 | 13.71044 | – |
| 2026 Apr 19 17:58 | 2026 Apr 18 22:34:54 | 71.0033 | 0.02109 | 19.2187 | 199.4876 | 244.1671 | 13.71044 | – |
| 2026 Apr 18 17:56 | 2026 Apr 13 00:44:48 | 71.0039 | 0.02111 | 19.9880 | 207.8116 | 244.1671 | 13.71044 | – |
| 2026 Apr 16 17:57 | 2026 Apr 13 00:44:48 | 71.0039 | 0.02111 | 19.9880 | 207.8116 | 244.1671 | 13.71044 | – |
| 2026 Apr 14 17:57 | 2026 Apr 13 00:44:48 | 71.0039 | 0.02111 | 19.9880 | 207.8116 | 244.1671 | 13.71044 | – |
| 2026 Apr 13 17:57 | 2026 Apr 13 00:44:48 | 71.0039 | 0.02111 | 19.9880 | 207.8116 | 244.1671 | 13.71044 | – |
| 2026 Apr 12 17:57 | 2026 Apr 08 15:11:03 | 71.0045 | 0.02113 | 20.5605 | 214.0019 | 244.1671 | 13.71044 | – |
| 2026 Apr 11 17:57 | 2026 Apr 08 15:11:03 | 71.0045 | 0.02113 | 20.5605 | 214.0019 | 244.1671 | 13.71044 | – |
| 2026 Apr 10 17:58 | 2026 Apr 08 15:11:03 | 71.0045 | 0.02113 | 20.5605 | 214.0019 | 244.1671 | 13.71044 | – |
| 2026 Apr 09 18:01 | 2026 Apr 08 15:11:03 | 71.0045 | 0.02113 | 20.5605 | 214.0019 | 244.1671 | 13.71044 | – |